Time;durP1;ratioP1;P1;durP2;ratioP2;P2;SDS_P1;SDS_P2;PMS_P1;PMS_P2;Temp;Humidity;BMP_temperature;BMP_pressure;BME280_temperature;BME280_humidity;BME280_pressure;Samples;Min_cycle;Max_cycle;Signal;HPM_P1;HPM_P2
2022/04/23 00:01:42;;;;;;;13.10;8.00;;;12.90;74.50;;;;;;5075427;28;20056;-83
2022/04/23 00:04:08;;;;;;;15.60;9.18;;;12.80;75.60;;;;;;5075546;28;20038;-82
2022/04/23 00:06:34;;;;;;;17.95;9.50;;;12.80;76.10;;;;;;5059113;28;20035;-84
2022/04/23 00:09:00;;;;;;;13.10;8.70;;;12.80;76.20;;;;;;5075829;28;20032;-83
2022/04/23 00:11:26;;;;;;;13.50;9.65;;;12.80;76.30;;;;;;5093377;28;20077;-83
2022/04/23 00:13:51;;;;;;;12.98;8.45;;;12.80;76.40;;;;;;5075328;28;20388;-84
2022/04/23 00:16:17;;;;;;;12.98;9.13;;;12.70;76.40;;;;;;5075252;28;20093;-81
2022/04/23 00:18:44;;;;;;;15.90;10.13;;;12.70;76.60;;;;;;5075290;28;20032;-81
2022/04/23 00:21:09;;;;;;;13.70;9.90;;;12.70;76.80;;;;;;5093650;28;20397;-84
2022/04/23 00:23:36;;;;;;;14.85;9.63;;;12.70;76.80;;;;;;5075291;28;20074;-84
2022/04/23 00:26:02;;;;;;;14.90;8.65;;;12.70;77.20;;;;;;5058565;28;20059;-81
2022/04/23 00:28:27;;;;;;;14.88;10.63;;;12.60;77.70;;;;;;5093178;28;20090;-83
2022/04/23 00:30:53;;;;;;;15.27;10.60;;;12.60;77.70;;;;;;5075004;28;20032;-84
2022/04/23 00:33:20;;;;;;;14.27;9.82;;;12.60;78.10;;;;;;5093086;28;20040;-83
2022/04/23 00:35:45;;;;;;;15.18;9.85;;;12.60;77.90;;;;;;5075161;28;20020;-83
2022/04/23 00:38:11;;;;;;;14.57;9.95;;;12.50;77.70;;;;;;5075184;28;20421;-84
2022/04/23 00:40:39;;;;;;;17.70;9.98;;;12.50;78.10;;;;;;5093079;28;20101;-82
2022/04/23 00:43:10;;;;;;;13.85;9.68;;;12.50;77.70;;;;;;5075538;28;20028;-82
2022/04/23 00:45:36;;;;;;;15.48;10.75;;;12.50;78.50;;;;;;5074790;28;20115;-83
2022/04/23 00:48:03;;;;;;;16.80;11.00;;;12.40;78.20;;;;;;5075117;28;20081;-83
2022/04/23 00:50:28;;;;;;;14.43;9.82;;;12.40;78.30;;;;;;5095461;28;20490;-82
2022/04/23 00:53:01;;;;;;;16.85;9.77;;;12.40;78.40;;;;;;5096787;28;20028;-83
2022/04/23 00:55:28;;;;;;;16.15;11.02;;;12.40;79.10;;;;;;5096808;28;20123;-81
2022/04/23 00:57:57;;;;;;;13.90;10.20;;;12.40;78.90;;;;;;5078415;28;20036;-82
2022/04/23 01:00:23;;;;;;;19.20;10.88;;;12.40;78.70;;;;;;5078542;28;20024;-82
2022/04/23 01:02:48;;;;;;;17.48;12.10;;;12.40;79.10;;;;;;5096784;28;20023;-82
2022/04/23 01:05:14;;;;;;;19.23;12.02;;;12.30;79.60;;;;;;5078316;28;20420;-83
2022/04/23 01:07:44;;;;;;;17.00;11.57;;;12.30;79.60;;;;;;5096684;28;20380;-83
2022/04/23 01:10:11;;;;;;;19.10;12.43;;;12.30;79.40;;;;;;5096600;28;20016;-82
2022/04/23 01:12:38;;;;;;;18.38;12.43;;;12.20;79.80;;;;;;5078196;28;20016;-81
2022/04/23 01:15:09;;;;;;;18.45;13.38;;;12.20;79.60;;;;;;5061870;28;20028;-81
2022/04/23 01:17:35;;;;;;;17.25;12.30;;;12.20;79.60;;;;;;5096403;28;20162;-81
2022/04/23 01:20:12;;;;;;;19.42;12.63;;;12.10;79.90;;;;;;5096289;28;20577;-84
2022/04/23 01:22:40;;;;;;;19.80;12.68;;;12.20;79.90;;;;;;5096244;28;20023;-84
2022/04/23 01:25:07;;;;;;;17.92;13.68;;;12.10;80.30;;;;;;5062141;28;20024;-82
2022/04/23 01:27:36;;;;;;;24.48;14.38;;;12.10;81.20;;;;;;5061200;28;20082;-84
2022/04/23 01:30:04;;;;;;;21.63;14.05;;;12.10;80.90;;;;;;5078617;28;20039;-82
2022/04/23 01:32:30;;;;;;;18.65;13.80;;;12.10;81.10;;;;;;5096268;28;20468;-82
2022/04/23 01:34:55;;;;;;;20.55;14.02;;;12.10;81.00;;;;;;5096073;28;20061;-82
2022/04/23 01:37:21;;;;;;;21.63;14.70;;;12.10;81.10;;;;;;5061567;28;20697;-82
2022/04/23 01:39:47;;;;;;;18.73;13.88;;;12.10;81.30;;;;;;5061081;28;20435;-83
2022/04/23 01:42:14;;;;;;;20.00;14.82;;;12.10;81.30;;;;;;5096678;28;20081;-82
2022/04/23 01:44:40;;;;;;;22.30;14.95;;;12.10;81.60;;;;;;5095966;28;20024;-82
2022/04/23 01:47:06;;;;;;;20.05;15.38;;;12.10;81.80;;;;;;5095279;28;20093;-83
2022/04/23 01:49:31;;;;;;;19.88;15.30;;;12.10;82.00;;;;;;5077870;28;20056;-82
2022/04/23 01:51:57;;;;;;;20.55;14.93;;;12.10;81.80;;;;;;5057603;28;20056;-83
2022/04/23 01:54:23;;;;;;;19.80;15.43;;;12.10;81.90;;;;;;5074063;28;20036;-81
2022/04/23 01:56:48;;;;;;;24.83;15.98;;;12.10;82.00;;;;;;5075421;28;20074;-83
2022/04/23 01:59:14;;;;;;;20.50;15.07;;;12.10;82.20;;;;;;5040819;28;20049;-81
2022/04/23 02:01:41;;;;;;;20.95;14.18;;;12.10;82.50;;;;;;5074999;28;20028;-83
2022/04/23 02:04:08;;;;;;;19.50;14.23;;;12.10;82.20;;;;;;5057308;28;20078;-82
2022/04/23 02:06:34;;;;;;;22.00;15.77;;;12.10;82.30;;;;;;5075230;28;20028;-82
2022/04/23 02:09:00;;;;;;;23.15;15.95;;;12.20;82.60;;;;;;5075146;28;20166;-81
2022/04/23 02:11:26;;;;;;;22.35;16.55;;;12.20;82.80;;;;;;5075000;28;20111;-82
2022/04/23 02:13:52;;;;;;;25.13;16.25;;;12.20;82.80;;;;;;5074950;28;20116;-82
2022/04/23 02:16:18;;;;;;;24.60;16.60;;;12.20;82.80;;;;;;5075099;28;20028;-81
2022/04/23 02:18:43;;;;;;;23.42;15.40;;;12.30;83.00;;;;;;5074898;28;20028;-82
2022/04/23 02:21:09;;;;;;;23.70;16.10;;;12.20;82.80;;;;;;5074608;28;20120;-83
2022/04/23 02:23:34;;;;;;;24.02;17.27;;;12.30;82.90;;;;;;5074875;28;20035;-81
2022/04/23 02:26:00;;;;;;;21.90;17.08;;;12.30;83.10;;;;;;5040233;28;20090;-84
2022/04/23 02:28:26;;;;;;;21.05;16.48;;;12.30;83.60;;;;;;5074986;28;20099;-81
2022/04/23 02:30:51;;;;;;;20.23;16.42;;;12.30;82.90;;;;;;5057401;28;20028;-82
2022/04/23 02:33:17;;;;;;;22.70;16.30;;;12.30;83.00;;;;;;5074633;28;20035;-82
2022/04/23 02:35:44;;;;;;;21.83;16.17;;;12.30;83.10;;;;;;5040142;28;20029;-82
2022/04/23 02:38:10;;;;;;;22.92;17.05;;;12.30;83.20;;;;;;5073220;28;20542;-82
2022/04/23 02:40:36;;;;;;;24.98;16.92;;;12.30;83.10;;;;;;5056705;28;20025;-82
2022/04/23 02:43:03;;;;;;;23.05;17.20;;;12.30;83.70;;;;;;5074476;28;20024;-83
2022/04/23 02:45:28;;;;;;;24.77;18.02;;;12.20;83.40;;;;;;5074473;28;20040;-82
2022/04/23 02:47:55;;;;;;;22.33;17.27;;;12.20;83.20;;;;;;5039937;28;20016;-83
2022/04/23 02:50:37;;;;;;;22.63;17.08;;;12.20;83.50;;;;;;5074374;28;20021;-82
2022/04/23 02:53:07;;;;;;;22.13;17.40;;;12.20;84.10;;;;;;5039977;28;20481;-82
2022/04/23 02:55:34;;;;;;;22.95;17.25;;;12.20;83.60;;;;;;5056404;28;20119;-81
2022/04/23 02:58:07;;;;;;;24.50;17.40;;;12.10;83.60;;;;;;5056419;28;20020;-83
2022/04/23 03:00:33;;;;;;;24.52;18.33;;;12.10;83.80;;;;;;5056199;28;20032;-82
2022/04/23 03:02:59;;;;;;;24.58;18.63;;;12.10;84.00;;;;;;5056437;28;20060;-81
2022/04/23 03:05:26;;;;;;;22.77;18.08;;;12.10;84.00;;;;;;5074165;28;20029;-81
2022/04/23 03:07:53;;;;;;;24.42;18.30;;;12.00;84.00;;;;;;5074418;28;20396;-83
2022/04/23 03:10:19;;;;;;;24.38;17.15;;;12.00;84.30;;;;;;5073894;28;20024;-82
2022/04/23 03:12:44;;;;;;;24.80;17.92;;;12.00;84.30;;;;;;5055310;28;20024;-82
2022/04/23 03:15:13;;;;;;;23.00;18.60;;;12.00;84.40;;;;;;5039199;28;20560;-82
2022/04/23 03:17:39;;;;;;;21.25;16.63;;;12.00;84.50;;;;;;5055917;28;20021;-82
2022/04/23 03:20:07;;;;;;;24.55;18.83;;;11.90;84.60;;;;;;5073720;28;20094;-83
2022/04/23 03:22:33;;;;;;;27.20;19.23;;;11.90;84.80;;;;;;5056121;28;20083;-82
2022/04/23 03:24:59;;;;;;;26.02;19.25;;;11.90;84.70;;;;;;5040237;28;20107;-82
2022/04/23 03:27:25;;;;;;;24.92;19.23;;;11.90;85.90;;;;;;5076566;28;20103;-82
2022/04/23 03:29:51;;;;;;;26.52;20.30;;;11.80;85.20;;;;;;5075009;28;20457;-82
2022/04/23 03:32:17;;;;;;;26.08;18.30;;;11.80;85.10;;;;;;5074105;28;20029;-81
2022/04/23 03:34:43;;;;;;;24.25;18.05;;;11.80;85.20;;;;;;5074766;28;20102;-82
2022/04/23 03:37:09;;;;;;;24.90;18.33;;;11.80;85.40;;;;;;5056904;28;20362;-83
2022/04/23 03:39:35;;;;;;;26.50;19.73;;;11.70;85.60;;;;;;5074693;28;20038;-82
2022/04/23 03:42:02;;;;;;;27.10;18.50;;;11.70;86.00;;;;;;5056801;28;20143;-82
2022/04/23 03:44:31;;;;;;;23.27;18.25;;;11.70;86.20;;;;;;5055889;28;20052;-83
2022/04/23 03:46:58;;;;;;;24.95;18.58;;;11.70;86.30;;;;;;5073517;28;20032;-82
2022/04/23 03:49:24;;;;;;;23.42;18.77;;;11.80;86.20;;;;;;5055753;28;20039;-82
2022/04/23 03:51:50;;;;;;;25.15;19.00;;;11.80;86.20;;;;;;5055550;28;20033;-83
2022/04/23 03:54:19;;;;;;;27.38;18.33;;;11.80;86.50;;;;;;5073690;28;20041;-81
2022/04/23 03:56:45;;;;;;;23.48;18.60;;;11.70;86.30;;;;;;5073551;28;20024;-82
2022/04/23 03:59:11;;;;;;;25.40;18.35;;;11.70;86.40;;;;;;5073504;28;20024;-83
2022/04/23 04:01:37;;;;;;;29.40;21.35;;;11.80;86.50;;;;;;5055933;28;20538;-81
2022/04/23 04:04:03;;;;;;;25.08;19.55;;;11.80;86.70;;;;;;5073492;28;20044;-82
2022/04/23 04:06:28;;;;;;;26.27;20.98;;;11.70;86.60;;;;;;5073264;28;20074;-81
2022/04/23 04:08:55;;;;;;;27.25;21.17;;;11.60;86.80;;;;;;5071868;28;20036;-83
2022/04/23 04:11:21;;;;;;;26.60;20.08;;;11.60;86.80;;;;;;5073178;28;20124;-83
2022/04/23 04:13:47;;;;;;;26.10;19.15;;;11.60;87.10;;;;;;5055000;28;20032;-83
2022/04/23 04:16:14;;;;;;;26.45;20.83;;;11.60;87.00;;;;;;5055082;28;20029;-83
2022/04/23 04:18:40;;;;;;;28.20;22.53;;;11.60;87.60;;;;;;5073018;28;20107;-84
2022/04/23 04:21:06;;;;;;;28.73;21.77;;;11.50;87.80;;;;;;5054862;28;20076;-84
2022/04/23 04:23:32;;;;;;;28.90;21.27;;;11.40;87.50;;;;;;5055068;28;20470;-84
2022/04/23 04:25:58;;;;;;;27.67;21.98;;;11.40;87.90;;;;;;5058743;28;20056;-82
2022/04/23 04:28:24;;;;;;;28.17;20.53;;;11.40;88.10;;;;;;5059337;28;20033;-84
2022/04/23 04:33:33;;;;;;;25.70;19.88;;;11.40;88.40;;;;;;5062131;28;20056;-83
2022/04/23 04:35:59;;;;;;;26.60;20.97;;;11.40;88.50;;;;;;5042390;28;20028;-82
2022/04/23 04:38:25;;;;;;;29.73;21.60;;;11.30;88.90;;;;;;5076835;28;20469;-83
2022/04/23 04:40:51;;;;;;;24.42;20.05;;;11.40;88.80;;;;;;5059028;28;20048;-84
2022/04/23 04:43:17;;;;;;;26.40;20.70;;;11.30;88.70;;;;;;5059154;28;20032;-84
2022/04/23 04:45:42;;;;;;;29.67;21.92;;;11.30;89.40;;;;;;5076737;28;20369;-83
2022/04/23 04:48:08;;;;;;;30.92;22.27;;;11.30;89.60;;;;;;5042300;28;20033;-83
2022/04/23 04:50:34;;;;;;;25.17;19.27;;;11.30;89.90;;;;;;5076766;28;20028;-84
2022/04/23 04:53:00;;;;;;;30.13;21.83;;;11.30;90.00;;;;;;5076480;28;20079;-84
2022/04/23 04:55:25;;;;;;;27.03;20.90;;;11.30;90.10;;;;;;5041920;28;20025;-84
2022/04/23 04:57:51;;;;;;;24.73;20.00;;;11.10;90.00;;;;;;5058725;28;20421;-83
2022/04/23 05:00:18;;;;;;;26.83;20.63;;;11.30;90.00;;;;;;5041955;28;20021;-83
2022/04/23 05:02:44;;;;;;;28.37;21.77;;;11.30;90.30;;;;;;5076580;28;20028;-84
2022/04/23 05:05:10;;;;;;;27.33;21.17;;;11.20;90.30;;;;;;5076384;28;20393;-81
2022/04/23 05:07:36;;;;;;;24.70;19.63;;;11.20;90.30;;;;;;5058699;28;20033;-84
2022/04/23 05:10:02;;;;;;;26.37;19.63;;;11.30;90.30;;;;;;5076285;28;20445;-82
2022/04/23 05:12:28;;;;;;;26.10;18.70;;;11.20;90.30;;;;;;5058376;28;20025;-86
2022/04/23 05:14:53;;;;;;;24.00;18.83;;;11.20;90.30;;;;;;5041640;28;20081;-84
2022/04/23 05:17:19;;;;;;;25.77;19.93;;;11.20;90.40;;;;;;5076010;28;20024;-82
2022/04/23 05:19:44;;;;;;;24.30;18.30;;;11.20;90.40;;;;;;5058371;28;20028;-85
2022/04/23 05:22:10;;;;;;;26.53;20.33;;;11.20;90.30;;;;;;5058239;28;20445;-83
2022/04/23 05:24:35;;;;;;;23.97;18.27;;;11.30;90.40;;;;;;5041620;28;20056;-82
2022/04/23 05:27:01;;;;;;;24.23;18.47;;;11.30;90.40;;;;;;5075757;28;20039;-82
2022/04/23 05:29:27;;;;;;;25.53;19.07;;;11.30;90.40;;;;;;5075945;28;20029;-83
2022/04/23 05:31:52;;;;;;;25.63;19.52;;;11.30;90.50;;;;;;5058218;28;20055;-83
2022/04/23 05:34:18;;;;;;;25.10;19.50;;;11.30;90.60;;;;;;5057977;28;20461;-83
2022/04/23 05:36:44;;;;;;;26.20;19.97;;;11.30;90.60;;;;;;5040312;28;20381;-82
2022/04/23 05:39:10;;;;;;;25.00;19.77;;;11.40;90.60;;;;;;5057659;28;20472;-82
2022/04/23 05:41:36;;;;;;;25.58;20.65;;;11.40;90.70;;;;;;5057826;28;20040;-82
2022/04/23 05:44:02;;;;;;;27.23;19.83;;;11.40;90.60;;;;;;5057883;28;20491;-85
2022/04/23 05:46:28;;;;;;;27.55;19.70;;;11.40;90.90;;;;;;5075616;28;20078;-82
2022/04/23 05:48:55;;;;;;;26.10;19.77;;;11.40;90.90;;;;;;5080996;28;20024;-83
2022/04/23 05:51:20;;;;;;;27.30;20.83;;;11.40;90.90;;;;;;5095976;28;20073;-83
2022/04/23 05:53:46;;;;;;;27.52;19.85;;;11.40;90.90;;;;;;5060682;28;20024;-83
2022/04/23 05:56:12;;;;;;;25.25;19.60;;;11.40;90.90;;;;;;5077501;28;20137;-82
2022/04/23 05:58:38;;;;;;;22.40;17.98;;;11.40;90.80;;;;;;5077595;28;20593;-84
2022/04/23 06:01:04;;;;;;;24.45;17.83;;;11.40;90.90;;;;;;5077289;28;20028;-80
2022/04/23 06:03:30;;;;;;;25.60;18.77;;;11.40;91.20;;;;;;5095309;28;20050;-83
2022/04/23 06:05:56;;;;;;;24.23;18.33;;;11.50;90.90;;;;;;5095549;28;20468;-81
2022/04/23 06:08:21;;;;;;;24.67;18.50;;;11.50;90.90;;;;;;5095889;28;20031;-81
2022/04/23 06:10:47;;;;;;;25.40;19.67;;;11.50;90.80;;;;;;5060637;28;20025;-82
2022/04/23 06:13:13;;;;;;;22.87;18.70;;;11.50;91.00;;;;;;5096013;28;20038;-85
2022/04/23 06:15:38;;;;;;;23.42;18.67;;;11.60;90.90;;;;;;5095423;28;20051;-81
2022/04/23 06:18:04;;;;;;;23.10;16.67;;;11.60;90.90;;;;;;5077258;28;20024;-86
2022/04/23 06:20:30;;;;;;;21.60;17.85;;;11.60;90.90;;;;;;5076849;28;20131;-83
2022/04/23 06:22:55;;;;;;;25.13;18.75;;;11.60;90.80;;;;;;5077179;28;20024;-83
2022/04/23 06:25:21;;;;;;;23.42;18.15;;;11.60;90.80;;;;;;5077258;28;20032;-81
2022/04/23 06:27:47;;;;;;;24.52;17.05;;;11.70;90.80;;;;;;5094914;28;20035;-83
2022/04/23 06:30:13;;;;;;;22.25;17.30;;;11.70;90.80;;;;;;5095106;28;20070;-82
2022/04/23 06:32:39;;;;;;;23.10;17.88;;;11.70;90.90;;;;;;5077552;28;20035;-84
2022/04/23 06:35:06;;;;;;;24.98;16.73;;;11.70;90.70;;;;;;5060190;28;20400;-82
2022/04/23 06:37:40;;;;;;;21.20;16.13;;;11.80;90.60;;;;;;5077458;28;20024;-83
2022/04/23 06:40:07;;;;;;;21.95;15.73;;;11.80;90.50;;;;;;5076832;28;20575;-82
2022/04/23 06:42:33;;;;;;;24.00;17.60;;;11.80;90.50;;;;;;5095062;28;20074;-83
2022/04/23 06:44:59;;;;;;;22.88;17.63;;;11.80;90.60;;;;;;5095140;28;20040;-83
2022/04/23 06:47:24;;;;;;;21.45;17.55;;;11.90;90.50;;;;;;5076472;28;20032;-82
2022/04/23 06:49:50;;;;;;;21.10;16.10;;;11.90;90.40;;;;;;5094819;28;20028;-83
2022/04/23 06:52:15;;;;;;;21.30;16.58;;;11.90;90.40;;;;;;5059848;28;20039;-83
2022/04/23 06:54:41;;;;;;;21.60;17.27;;;12.00;90.70;;;;;;5076581;28;20111;-82
2022/04/23 06:57:06;;;;;;;20.88;16.20;;;12.00;90.30;;;;;;5076191;28;20020;-83
2022/04/23 06:59:33;;;;;;;23.70;17.05;;;12.00;90.30;;;;;;5076499;28;20436;-81
2022/04/23 07:02:02;;;;;;;20.60;15.73;;;12.10;90.30;;;;;;5076870;28;20027;-84
2022/04/23 07:04:28;;;;;;;19.15;15.25;;;12.10;90.20;;;;;;5059869;28;20032;-83
2022/04/23 07:06:54;;;;;;;22.23;15.65;;;12.20;90.10;;;;;;5094464;28;20507;-81
2022/04/23 07:09:20;;;;;;;20.35;15.20;;;12.20;90.10;;;;;;5076218;28;20040;-82
2022/04/23 07:11:47;;;;;;;24.05;16.98;;;12.20;90.00;;;;;;5059853;28;20039;-84
2022/04/23 07:14:12;;;;;;;22.98;17.63;;;12.30;90.40;;;;;;5094111;28;20357;-82
2022/04/23 07:16:39;;;;;;;21.05;16.58;;;12.30;90.10;;;;;;5075927;28;20027;-82
2022/04/23 07:19:07;;;;;;;24.25;17.30;;;12.30;90.00;;;;;;5075991;28;20034;-80
2022/04/23 07:21:34;;;;;;;19.55;16.45;;;12.40;90.00;;;;;;5094051;28;20071;-80
2022/04/23 07:24:03;;;;;;;20.50;16.40;;;12.50;89.90;;;;;;5076394;28;20077;-80
2022/04/23 07:26:30;;;;;;;21.42;16.40;;;12.50;89.70;;;;;;5056684;28;20037;-81
2022/04/23 07:28:55;;;;;;;22.83;15.48;;;12.60;89.70;;;;;;5039254;28;20444;-80
2022/04/23 07:31:21;;;;;;;21.70;16.15;;;12.70;89.60;;;;;;5060126;28;20039;-80
2022/04/23 07:39:14;;;;;;;22.10;16.60;;;12.90;89.10;;;;;;5058684;28;20114;-81
2022/04/23 07:41:40;;;;;;;21.98;16.40;;;12.90;88.80;;;;;;5055745;28;20468;-81
2022/04/23 07:44:06;;;;;;;21.52;16.08;;;12.90;88.50;;;;;;5072332;28;20056;-80
2022/04/23 07:46:31;;;;;;;18.42;15.35;;;13.00;88.40;;;;;;5092831;28;20032;-81
2022/04/23 07:48:58;;;;;;;23.10;17.38;;;13.00;88.10;;;;;;5075631;28;20031;-80
2022/04/23 07:51:26;;;;;;;22.17;16.70;;;13.10;87.90;;;;;;5093620;28;20024;-82
2022/04/23 07:53:55;;;;;;;20.92;15.60;;;13.10;87.70;;;;;;5093570;28;20536;-80
2022/04/23 07:56:21;;;;;;;21.15;17.15;;;13.20;87.40;;;;;;5075339;28;20025;-79
2022/04/23 07:58:47;;;;;;;23.58;16.63;;;13.30;87.20;;;;;;5093106;28;20108;-79
2022/04/23 08:01:12;;;;;;;21.92;16.67;;;13.30;86.80;;;;;;5093439;28;20192;-80
2022/04/23 08:03:38;;;;;;;20.33;16.30;;;13.40;86.60;;;;;;5093457;28;20039;-80
2022/04/23 08:06:04;;;;;;;23.70;18.35;;;13.50;86.80;;;;;;5075519;28;20498;-80
2022/04/23 08:08:29;;;;;;;20.55;16.63;;;13.50;86.30;;;;;;5058868;28;20490;-82
2022/04/23 08:10:55;;;;;;;19.73;16.05;;;13.50;86.10;;;;;;5075096;28;20047;-80
2022/04/23 08:13:21;;;;;;;19.17;15.25;;;13.60;85.80;;;;;;5058498;28;20032;-79
2022/04/23 08:15:46;;;;;;;20.52;15.82;;;13.70;85.70;;;;;;5093247;28;20024;-80
2022/04/23 08:18:13;;;;;;;20.20;15.80;;;13.70;85.50;;;;;;5074978;28;20522;-80
2022/04/23 08:20:41;;;;;;;21.52;16.30;;;13.80;85.40;;;;;;5092971;28;20040;-79
2022/04/23 08:23:07;;;;;;;20.58;16.08;;;13.90;85.20;;;;;;5055118;28;20058;-80
2022/04/23 08:25:33;;;;;;;22.50;17.08;;;13.90;84.70;;;;;;5073487;28;20109;-79
2022/04/23 08:30:34;;;;;;;19.45;16.10;;;14.00;84.50;;;;;;5044556;28;20112;-80
2022/04/23 08:30:44;;;;;;;19.05;15.55;;;14.10;84.50;;;;;;5072909;28;20391;-79
2022/04/23 08:33:10;;;;;;;19.92;16.08;;;14.20;84.10;;;;;;5055152;28;20074;-80
2022/04/23 08:35:37;;;;;;;23.17;16.98;;;14.30;83.90;;;;;;5072907;28;20032;-79
2022/04/23 08:38:04;;;;;;;20.60;16.33;;;14.40;83.60;;;;;;5073360;28;20016;-80
2022/04/23 08:40:39;;;;;;;19.30;15.65;;;14.50;83.20;;;;;;5055277;28;20039;-80
2022/04/23 08:43:06;;;;;;;19.83;16.00;;;14.60;82.90;;;;;;5072969;28;20358;-81
2022/04/23 08:45:35;;;;;;;20.63;16.40;;;14.70;82.50;;;;;;5054992;28;20412;-79
2022/04/23 08:48:04;;;;;;;19.13;15.55;;;14.70;82.30;;;;;;5054874;28;20024;-80
2022/04/23 08:50:31;;;;;;;22.67;16.70;;;14.80;81.70;;;;;;5072963;28;20395;-79
2022/04/23 08:53:00;;;;;;;21.95;16.50;;;14.90;81.30;;;;;;5072750;28;20029;-80
2022/04/23 08:55:26;;;;;;;19.58;15.38;;;15.00;80.90;;;;;;5072640;28;20021;-82
2022/04/23 08:57:54;;;;;;;20.45;16.35;;;15.10;80.90;;;;;;5077224;28;20043;-81
2022/04/23 09:00:20;;;;;;;19.80;14.95;;;15.30;80.70;;;;;;5074844;28;20396;-80
2022/04/23 09:02:46;;;;;;;18.67;14.85;;;15.50;81.30;;;;;;5074735;28;20032;-81
2022/04/23 09:05:12;;;;;;;20.92;16.33;;;15.60;80.10;;;;;;5075098;28;20460;-80
2022/04/23 09:07:39;;;;;;;18.60;15.18;;;15.80;78.70;;;;;;5092681;28;20030;-82
2022/04/23 09:10:06;;;;;;;18.20;14.65;;;15.90;78.30;;;;;;5057880;28;20024;-81
2022/04/23 09:12:31;;;;;;;19.52;14.55;;;16.00;77.80;;;;;;5060838;28;20515;-82
2022/04/23 09:23:39;;;;;;;19.70;14.93;;;16.20;76.80;;;;;;5078026;28;20159;-81
2022/04/23 09:23:43;;;;;;;16.23;11.95;;;16.50;75.50;;;;;;5096681;28;20085;-81
2022/04/23 09:26:21;;;;;;;19.20;13.98;;;16.60;74.70;;;;;;5096158;28;20089;-81
2022/04/23 09:28:55;;;;;;;19.70;14.23;;;16.60;73.40;;;;;;5078133;28;20070;-82
2022/04/23 09:31:24;;;;;;;19.55;13.55;;;16.70;73.30;;;;;;5078168;28;20024;-85
2022/04/23 09:33:51;;;;;;;24.60;16.15;;;16.80;73.10;;;;;;5078021;28;20040;-83
2022/04/23 09:36:17;;;;;;;19.40;15.13;;;16.90;72.50;;;;;;5073690;28;20032;-82
2022/04/23 09:38:43;;;;;;;16.38;12.65;;;17.00;71.80;;;;;;5058436;28;20033;-85
2022/04/23 09:41:20;;;;;;;20.33;14.00;;;17.00;71.20;;;;;;5041466;28;20435;-82
2022/04/23 09:44:12;;;;;;;20.98;16.70;;;17.10;70.90;;;;;;5059299;28;20025;-82
2022/04/23 09:46:48;;;;;;;18.35;13.57;;;17.10;70.20;;;;;;5059299;28;20046;-81
2022/04/23 09:49:23;;;;;;;18.55;14.95;;;17.10;70.30;;;;;;5089014;28;20036;-82
2022/04/23 09:52:09;;;;;;;16.58;12.57;;;17.20;69.90;;;;;;5069682;28;20033;-82
2022/04/23 09:54:37;;;;;;;18.00;13.90;;;17.30;69.70;;;;;;5088333;28;20032;-81
2022/04/23 09:57:04;;;;;;;20.05;12.73;;;17.40;69.00;;;;;;5070976;28;20020;-83
2022/04/23 09:59:30;;;;;;;22.15;13.05;;;17.50;68.80;;;;;;5061030;28;20476;-82
2022/04/23 10:01:56;;;;;;;20.20;14.75;;;17.70;68.90;;;;;;5095647;28;20043;-81
2022/04/23 10:04:27;;;;;;;22.80;13.95;;;17.80;68.00;;;;;;5064993;28;20089;-80
2022/04/23 10:06:54;;;;;;;21.33;14.40;;;17.90;67.60;;;;;;5075187;28;20099;-81
2022/04/23 10:09:26;;;;;;;18.98;14.20;;;18.00;66.90;;;;;;5069902;28;20028;-81
2022/04/23 10:12:00;;;;;;;18.63;14.35;;;18.00;66.60;;;;;;5095154;28;20476;-82
2022/04/23 10:14:28;;;;;;;19.20;13.50;;;18.10;66.30;;;;;;5074915;28;20052;-79
2022/04/23 10:16:55;;;;;;;18.77;13.57;;;18.30;66.00;;;;;;5076955;28;20027;-80
2022/04/23 10:19:22;;;;;;;18.20;13.95;;;18.60;65.20;;;;;;5077045;28;20050;-81
2022/04/23 10:22:01;;;;;;;20.33;14.10;;;18.80;64.40;;;;;;5094587;28;20047;-81
2022/04/23 10:24:47;;;;;;;22.73;13.55;;;19.00;62.90;;;;;;5095084;28;20026;-83
2022/04/23 10:27:14;;;;;;;16.05;12.40;;;19.20;62.60;;;;;;5066014;28;20051;-79
2022/04/23 10:29:41;;;;;;;12.90;10.23;;;19.30;63.30;;;;;;5051256;28;20028;-80
2022/04/23 10:32:16;;;;;;;13.82;10.70;;;19.40;62.60;;;;;;5072946;28;20063;-80
2022/04/23 10:34:42;;;;;;;15.15;10.55;;;19.40;62.70;;;;;;5093488;28;20502;-81
2022/04/23 10:37:25;;;;;;;16.98;12.13;;;19.40;62.70;;;;;;5077351;28;20016;-82
2022/04/23 10:39:53;;;;;;;13.82;10.00;;;19.50;62.30;;;;;;5061646;28;20016;-83
2022/04/23 10:42:21;;;;;;;15.82;11.32;;;19.60;62.30;;;;;;5076921;28;20115;-82
2022/04/23 10:44:49;;;;;;;15.43;10.88;;;19.60;62.20;;;;;;5084147;28;20032;-82
2022/04/23 10:47:32;;;;;;;14.10;9.93;;;19.70;61.90;;;;;;5077489;28;20388;-81
2022/04/23 10:50:31;;;;;;;14.48;11.30;;;19.90;61.40;;;;;;5075925;28;20031;-83
2022/04/23 10:53:02;;;;;;;15.23;10.55;;;20.00;60.70;;;;;;5039642;28;20202;-83
2022/04/23 10:55:27;;;;;;;15.70;10.13;;;20.10;60.80;;;;;;5077568;28;20170;-82
2022/04/23 10:57:54;;;;;;;14.55;11.10;;;20.30;60.80;;;;;;5056356;28;20556;-81
2022/04/23 11:00:30;;;;;;;16.27;10.43;;;20.50;60.50;;;;;;5070274;28;20012;-82
2022/04/23 11:03:10;;;;;;;13.88;10.23;;;20.70;59.90;;;;;;5114837;28;20038;-81
2022/04/23 11:13:58;;;;;;;14.98;11.00;;;21.70;58.00;;;;;;5114716;28;20489;-83
2022/04/23 11:16:29;;;;;;;15.93;11.27;;;22.00;57.20;;;;;;5096433;28;20074;-81
2022/04/23 11:18:58;;;;;;;13.90;10.55;;;22.20;57.20;;;;;;5114392;28;20468;-79
2022/04/23 11:21:30;;;;;;;15.55;11.90;;;22.40;56.60;;;;;;5096540;28;20047;-79
2022/04/23 11:23:58;;;;;;;13.43;10.38;;;22.60;55.20;;;;;;5114278;28;20026;-80
2022/04/23 11:26:55;;;;;;;12.63;10.27;;;22.80;54.60;;;;;;5100784;28;20067;-79
2022/04/23 11:29:21;;;;;;;13.23;10.43;;;23.00;53.70;;;;;;5073852;28;20040;-80
2022/04/23 11:31:56;;;;;;;13.75;10.50;;;23.20;54.10;;;;;;5075401;28;20039;-81
2022/04/23 11:34:22;;;;;;;13.43;10.30;;;23.40;53.30;;;;;;5081512;28;20021;-81
2022/04/23 11:36:48;;;;;;;13.00;10.02;;;23.60;53.20;;;;;;5073709;28;20020;-79
2022/04/23 11:39:14;;;;;;;12.18;9.23;;;23.70;52.80;;;;;;5075285;28;20039;-80
2022/04/23 11:41:50;;;;;;;13.80;9.23;;;24.00;52.50;;;;;;5075609;28;20100;-82
2022/04/23 11:44:15;;;;;;;13.43;9.52;;;24.20;52.20;;;;;;5075448;28;20028;-80
2022/04/23 11:46:47;;;;;;;16.65;11.65;;;24.40;51.40;;;;;;5093623;28;20469;-79
2022/04/23 11:49:31;;;;;;;16.45;11.65;;;24.50;50.80;;;;;;5093730;28;20537;-80
2022/04/23 11:52:07;;;;;;;15.23;10.73;;;24.60;49.70;;;;;;5094019;28;20035;-78
2022/04/23 11:54:43;;;;;;;14.52;11.13;;;24.60;49.80;;;;;;5075272;28;20034;-80
2022/04/23 11:57:19;;;;;;;13.90;10.30;;;24.50;49.80;;;;;;5075289;28;20068;-80
2022/04/23 11:59:46;;;;;;;13.77;11.00;;;24.60;49.50;;;;;;5075155;28;20020;-80
2022/04/23 12:02:19;;;;;;;15.93;11.25;;;24.60;49.20;;;;;;5093730;28;20016;-79
2022/04/23 12:04:48;;;;;;;14.33;11.33;;;24.80;48.50;;;;;;5075338;28;20027;-78
2022/04/23 12:07:14;;;;;;;12.45;10.85;;;25.00;48.40;;;;;;5075372;28;20020;-81
2022/04/23 12:09:49;;;;;;;13.45;10.55;;;25.20;48.00;;;;;;5093502;28;20028;-82
2022/04/23 12:12:19;;;;;;;12.73;10.48;;;25.30;47.50;;;;;;5075166;28;20546;-80
2022/04/23 12:14:46;;;;;;;10.80;8.68;;;25.50;47.60;;;;;;5093122;28;20406;-79
2022/04/23 12:17:29;;;;;;;16.38;9.68;;;25.60;47.30;;;;;;5075248;28;20016;-79
2022/04/23 12:19:57;;;;;;;16.08;9.85;;;25.70;46.80;;;;;;5075221;28;20108;-79
2022/04/23 12:22:27;;;;;;;14.77;9.52;;;25.80;46.80;;;;;;5093196;28;20039;-80
2022/04/23 12:25:18;;;;;;;12.20;10.05;;;25.90;46.30;;;;;;5093292;28;20036;-81
2022/04/23 12:28:02;;;;;;;12.40;9.60;;;25.90;45.20;;;;;;5093221;28;20039;-79
2022/04/23 12:41:58;;;;;;;11.48;9.20;;;26.90;44.30;;;;;;5093477;28;20032;-77
2022/04/23 12:44:41;;;;;;;13.02;9.60;;;27.00;44.40;;;;;;5093280;28;20058;-80
2022/04/23 12:47:08;;;;;;;10.40;8.65;;;27.20;43.20;;;;;;5079021;28;20507;-80
2022/04/23 12:49:45;;;;;;;12.95;8.80;;;27.40;43.40;;;;;;5062592;28;20035;-80
2022/04/23 12:52:24;;;;;;;11.20;9.27;;;27.60;42.70;;;;;;5079027;28;20059;-80
2022/04/23 12:55:15;;;;;;;13.65;9.52;;;27.60;42.30;;;;;;5078852;28;20035;-80
2022/04/23 12:58:03;;;;;;;10.45;8.73;;;27.90;42.20;;;;;;5097570;28;20032;-80
2022/04/23 13:00:31;;;;;;;11.57;8.35;;;28.00;42.20;;;;;;5096911;28;20048;-79
2022/04/23 13:03:00;;;;;;;12.50;7.93;;;28.00;42.20;;;;;;5078830;28;20533;-81
2022/04/23 13:05:27;;;;;;;10.77;7.80;;;28.10;42.10;;;;;;5097029;28;20472;-79
2022/04/23 13:10:38;;;;;;;11.50;8.48;;;28.40;41.20;;;;;;5081781;28;20396;-80